Time;durP1;ratioP1;P1;durP2;ratioP2;P2;SDS_P1;SDS_P2;PMS_P1;PMS_P2;Temp;Humidity;BMP_temperature;BMP_pressure;BME280_temperature;BME280_humidity;BME280_pressure;Samples;Min_cycle;Max_cycle;Signal;HPM_P1;HPM_P2
2021/03/06 00:00:14;;;;;;;8.55;3.22;;;;;;;4.32;58.49;103620.78;5058826;28;20468;-83
2021/03/06 00:02:40;;;;;;;8.48;3.92;;;;;;;4.30;58.45;103619.78;5057503;28;20033;-83
2021/03/06 00:05:08;;;;;;;8.52;4.10;;;;;;;4.26;58.77;103623.09;5057280;28;20033;-83
2021/03/06 00:07:35;;;;;;;11.15;4.03;;;;;;;4.21;58.82;103621.16;5057035;28;20036;-83
2021/03/06 00:10:04;;;;;;;9.95;3.63;;;;;;;4.18;58.83;103617.47;5057573;28;20040;-83
2021/03/06 00:12:30;;;;;;;15.05;4.40;;;;;;;4.13;58.92;103622.47;5057674;28;20448;-84
2021/03/06 00:14:56;;;;;;;10.40;3.78;;;;;;;4.07;58.69;103622.16;5058140;28;20380;-84
2021/03/06 00:17:23;;;;;;;7.43;3.38;;;;;;;4.03;59.08;103620.19;5057005;28;20111;-84
2021/03/06 00:19:49;;;;;;;10.40;3.65;;;;;;;3.99;58.79;103623.50;5057279;28;20411;-84
2021/03/06 00:22:17;;;;;;;7.43;3.80;;;;;;;3.95;59.09;103625.06;5057239;28;20032;-84
2021/03/06 00:24:43;;;;;;;5.57;3.38;;;;;;;3.90;59.31;103623.91;5057261;28;20025;-84
2021/03/06 00:27:10;;;;;;;7.82;3.55;;;;;;;3.86;59.19;103617.59;5056735;28;20083;-84
2021/03/06 00:29:36;;;;;;;10.52;3.55;;;;;;;3.83;59.57;103619.16;5057845;28;20455;-84
2021/03/06 00:32:03;;;;;;;10.50;4.07;;;;;;;3.81;59.39;103621.69;5058754;28;20039;-84
2021/03/06 00:34:29;;;;;;;10.70;4.30;;;;;;;3.72;59.28;103618.59;5056227;28;20036;-84
2021/03/06 00:36:56;;;;;;;9.27;4.35;;;;;;;3.69;59.24;103623.69;5055676;28;20377;-84
2021/03/06 00:39:22;;;;;;;8.18;3.60;;;;;;;3.60;59.41;103629.34;5057429;28;20025;-84
2021/03/06 00:41:49;;;;;;;10.27;4.53;;;;;;;3.56;59.66;103633.50;5057707;28;20037;-84
2021/03/06 00:44:15;;;;;;;9.63;3.80;;;;;;;3.50;59.82;103630.56;5056185;28;20492;-83
2021/03/06 00:46:41;;;;;;;13.57;3.67;;;;;;;3.44;59.45;103627.59;5056750;28;20025;-84
2021/03/06 00:49:08;;;;;;;8.13;4.20;;;;;;;3.36;59.80;103626.25;5056327;28;20025;-84
2021/03/06 00:51:34;;;;;;;9.15;3.83;;;;;;;3.34;59.81;103627.88;5057816;28;20025;-84
2021/03/06 00:54:01;;;;;;;8.98;4.03;;;;;;;3.29;59.72;103621.50;5056745;28;20044;-84
2021/03/06 00:56:27;;;;;;;12.32;3.95;;;;;;;3.22;60.09;103621.16;5057693;28;20380;-84
2021/03/06 00:58:54;;;;;;;8.27;3.67;;;;;;;3.21;59.88;103624.59;5058036;28;20032;-83
2021/03/06 01:01:20;;;;;;;10.57;4.43;;;;;;;3.14;59.92;103627.72;5058235;28;20038;-84
2021/03/06 01:03:47;;;;;;;9.98;3.58;;;;;;;3.12;59.97;103629.34;5061237;28;20097;-84
2021/03/06 01:06:13;;;;;;;8.43;4.50;;;;;;;3.04;60.21;103630.59;5056904;28;20027;-84
2021/03/06 01:08:40;;;;;;;10.20;4.22;;;;;;;3.02;60.13;103617.44;5055844;28;20032;-83
2021/03/06 01:11:06;;;;;;;16.20;4.28;;;;;;;2.97;60.16;103615.41;5057798;28;20025;-84
2021/03/06 01:13:33;;;;;;;11.52;4.20;;;;;;;2.90;60.31;103615.06;5060648;28;20033;-85
2021/03/06 01:15:59;;;;;;;8.85;4.65;;;;;;;2.86;60.43;103614.78;5055688;28;20021;-83
2021/03/06 01:18:26;;;;;;;8.05;3.88;;;;;;;2.79;60.48;103621.41;5054619;28;20353;-83
2021/03/06 01:20:52;;;;;;;9.00;4.32;;;;;;;2.75;60.69;103611.53;5054611;28;20480;-83
2021/03/06 01:23:20;;;;;;;8.75;4.43;;;;;;;2.71;60.67;103609.56;5056286;28;20032;-83
2021/03/06 01:25:46;;;;;;;10.38;3.58;;;;;;;2.67;60.71;103610.22;5055758;28;20032;-83
2021/03/06 01:28:13;;;;;;;10.65;4.28;;;;;;;2.64;60.98;103608.34;5055503;28;20033;-83
2021/03/06 01:30:40;;;;;;;8.75;3.95;;;;;;;2.65;60.96;103614.47;5055461;28;20029;-83
2021/03/06 01:33:06;;;;;;;11.05;4.78;;;;;;;2.65;61.04;103609.22;5055221;28;20036;-83
2021/03/06 01:35:33;;;;;;;8.93;4.88;;;;;;;2.65;61.38;103609.22;5055567;28;20037;-83
2021/03/06 01:38:00;;;;;;;17.85;4.72;;;;;;;2.68;61.19;103609.38;5055669;28;20032;-83
2021/03/06 01:40:31;;;;;;;13.30;5.30;;;;;;;2.74;61.30;103605.41;5055466;28;20033;-84
2021/03/06 01:42:58;;;;;;;7.15;4.20;;;;;;;2.72;61.40;103600.91;5056586;28;20392;-83
2021/03/06 01:45:25;;;;;;;12.23;4.55;;;;;;;2.69;61.17;103595.47;5055041;28;20431;-83
2021/03/06 01:47:51;;;;;;;11.05;4.78;;;;;;;2.65;61.24;103602.25;5057904;28;20025;-84
2021/03/06 01:50:25;;;;;;;5.95;4.13;;;;;;;2.64;61.55;103591.69;5055512;28;20476;-84
2021/03/06 01:52:52;;;;;;;9.25;4.63;;;;;;;2.61;61.30;103597.66;5056899;28;20021;-84
2021/03/06 01:55:23;;;;;;;10.93;4.97;;;;;;;2.58;61.76;103598.41;5058014;28;20040;-84
2021/03/06 01:57:50;;;;;;;6.85;5.07;;;;;;;2.52;61.60;103598.03;5056469;28;20021;-83
2021/03/06 02:00:18;;;;;;;20.27;6.05;;;;;;;2.52;61.55;103595.44;5055580;28;20024;-84
2021/03/06 02:02:44;;;;;;;10.18;4.20;;;;;;;2.51;61.74;103591.00;5056196;28;20025;-84
2021/03/06 02:05:11;;;;;;;7.20;4.43;;;;;;;2.53;61.68;103602.47;5053980;28;20029;-84
2021/03/06 02:07:38;;;;;;;10.73;4.10;;;;;;;2.50;61.77;103599.66;5054700;28;20476;-84
2021/03/06 02:10:05;;;;;;;13.88;5.10;;;;;;;2.47;62.06;103596.88;5054258;28;20096;-84
2021/03/06 02:16:15;;;;;;;10.02;5.20;;;;;;;2.48;62.98;103596.06;5083327;27;20414;-83
2021/03/06 02:18:49;;;;;;;10.23;4.75;;;;;;;2.45;62.70;103595.88;5074851;28;20483;-83
2021/03/06 02:21:45;;;;;;;13.27;5.95;;;;;;;2.47;62.69;103596.88;5073402;28;20029;-83
2021/03/06 02:24:30;;;;;;;12.75;4.50;;;;;;;2.43;62.35;103594.91;5071122;28;20142;-83
2021/03/06 02:29:50;;;;;;;12.50;4.82;;;;;;;2.36;62.62;103588.41;5091886;27;20392;-84
2021/03/06 02:32:24;;;;;;;10.20;3.97;;;;;;;2.33;62.40;103592.53;5071432;28;20112;-84
2021/03/06 02:34:59;;;;;;;12.20;4.85;;;;;;;2.29;62.11;103594.06;5071790;28;20031;-84
2021/03/06 02:37:26;;;;;;;9.57;4.88;;;;;;;2.29;62.00;103593.19;5051424;28;20059;-84
2021/03/06 02:39:57;;;;;;;8.48;4.60;;;;;;;2.25;62.70;103582.53;5051477;28;20384;-84
2021/03/06 02:42:26;;;;;;;11.57;4.88;;;;;;;2.22;62.48;103582.38;5052118;28;20051;-84
2021/03/06 02:44:55;;;;;;;13.98;5.38;;;;;;;2.20;62.58;103585.69;5052317;28;20029;-84
2021/03/06 02:47:22;;;;;;;13.35;4.95;;;;;;;2.22;62.77;103581.47;5050868;28;20064;-83
2021/03/06 02:49:53;;;;;;;12.45;4.88;;;;;;;2.26;62.98;103581.72;5051838;28;20147;-83
2021/03/06 02:52:20;;;;;;;11.80;4.18;;;;;;;2.24;62.93;103579.81;5052496;28;20056;-83
2021/03/06 02:54:48;;;;;;;12.52;5.40;;;;;;;2.23;62.98;103576.31;5050161;28;20057;-83
2021/03/06 02:57:36;;;;;;;12.13;5.70;;;;;;;2.34;63.38;103578.66;5050663;28;20417;-84
2021/03/06 03:00:13;;;;;;;9.98;4.85;;;;;;;2.34;63.24;103568.19;5050426;28;20053;-84
2021/03/06 03:03:17;;;;;;;13.48;5.82;;;;;;;2.38;63.46;103578.00;5050644;28;20029;-84
2021/03/06 03:05:51;;;;;;;9.40;4.78;;;;;;;2.30;63.98;103584.53;5050860;28;20032;-83
2021/03/06 03:08:43;;;;;;;25.20;5.78;;;;;;;2.31;63.60;103568.91;5051097;28;20087;-84
2021/03/06 03:11:14;;;;;;;11.73;4.68;;;;;;;2.21;63.69;103564.84;5051727;28;20025;-84
2021/03/06 03:13:49;;;;;;;6.50;4.38;;;;;;;2.15;63.53;103564.50;5049585;28;20030;-84
2021/03/06 03:16:22;;;;;;;10.25;5.22;;;;;;;2.15;63.73;103561.00;5050417;28;20065;-84
2021/03/06 03:18:55;;;;;;;12.23;4.45;;;;;;;2.10;63.76;103561.59;5050546;28;20040;-84
2021/03/06 03:21:26;;;;;;;14.07;5.55;;;;;;;2.12;63.62;103564.34;5049428;28;20392;-84
2021/03/06 03:24:09;;;;;;;7.90;4.60;;;;;;;2.14;63.93;103562.69;5049521;28;20171;-84
2021/03/06 03:26:38;;;;;;;;;;;;;;;2.23;64.65;103563.25;5051093;28;20112;-83
2021/03/06 03:29:06;;;;;;;17.35;6.32;;;;;;;2.13;63.51;103560.91;5050318;28;20314;-84
2021/03/06 03:31:35;;;;;;;16.50;5.82;;;;;;;2.12;64.08;103564.34;5050900;28;20036;-83
2021/03/06 03:34:06;;;;;;;12.48;4.63;;;;;;;2.12;64.12;103566.94;5050717;28;20036;-83
2021/03/06 03:36:33;;;;;;;10.05;4.28;;;;;;;2.08;63.77;103567.56;5051697;28;20485;-84
2021/03/06 03:39:00;;;;;;;10.50;5.07;;;;;;;2.05;63.86;103572.63;5048422;28;20038;-84
2021/03/06 03:41:27;;;;;;;13.55;5.38;;;;;;;2.02;63.83;103567.19;5034845;28;20445;-82
2021/03/06 03:43:54;;;;;;;13.02;5.20;;;;;;;2.00;64.03;103561.00;5036282;28;20032;-82
2021/03/06 03:46:21;;;;;;;8.95;4.22;;;;;;;2.00;64.36;103564.50;5035993;28;20025;-82
2021/03/06 03:48:49;;;;;;;11.18;5.25;;;;;;;2.01;64.10;103571.53;5035755;28;20025;-82
2021/03/06 03:51:16;;;;;;;13.57;5.75;;;;;;;2.02;64.01;103575.03;5036259;28;20103;-82
2021/03/06 03:53:43;;;;;;;13.20;5.55;;;;;;;2.05;63.78;103570.00;5035759;28;20037;-82
2021/03/06 03:56:10;;;;;;;11.45;4.75;;;;;;;2.09;64.23;103571.97;5035872;28;20096;-82
2021/03/06 03:58:36;;;;;;;9.85;4.80;;;;;;;2.09;64.32;103564.13;5035958;28;20037;-84
2021/03/06 04:01:03;;;;;;;10.57;4.43;;;;;;;2.09;63.71;103567.66;5035658;28;20026;-85
2021/03/06 04:03:30;;;;;;;10.05;4.78;;;;;;;2.03;64.13;103564.69;5035971;28;20427;-84
2021/03/06 04:05:57;;;;;;;7.03;3.97;;;;;;;2.04;64.15;103573.44;5035651;28;20076;-84
2021/03/06 04:08:24;;;;;;;9.18;4.13;;;;;;;2.02;64.10;103577.66;5034615;28;20431;-84
2021/03/06 04:10:50;;;;;;;13.82;4.90;;;;;;;1.98;64.02;103566.13;5035642;28;20033;-84
2021/03/06 04:13:17;;;;;;;6.82;3.80;;;;;;;2.00;64.35;103571.44;5035528;28;20420;-84
2021/03/06 04:15:43;;;;;;;11.60;4.10;;;;;;;1.94;64.36;103565.06;5050662;22;20038;-84
2021/03/06 04:18:09;;;;;;;9.77;5.25;;;;;;;1.97;63.97;103573.88;5036503;28;20030;-84
2021/03/06 04:20:36;;;;;;;13.57;5.25;;;;;;;1.99;63.87;103577.50;5036454;28;20102;-84
2021/03/06 04:23:03;;;;;;;11.23;4.75;;;;;;;2.00;63.95;103579.28;5035611;28;20483;-83
2021/03/06 04:25:29;;;;;;;11.35;5.07;;;;;;;1.96;64.26;103578.22;5035183;28;20057;-84
2021/03/06 04:27:57;;;;;;;10.88;4.28;;;;;;;2.00;63.91;103574.06;5035358;28;20025;-84
2021/03/06 04:30:24;;;;;;;12.27;4.65;;;;;;;1.98;64.08;103579.22;5035613;28;20121;-84
2021/03/06 04:32:51;;;;;;;8.85;4.18;;;;;;;2.01;64.11;103586.34;5035622;28;20034;-84
2021/03/06 04:35:17;;;;;;;7.00;4.43;;;;;;;1.98;64.18;103586.13;5035214;28;20028;-84
2021/03/06 04:37:45;;;;;;;12.18;4.82;;;;;;;2.00;64.06;103592.38;5035401;28;20030;-84
2021/03/06 04:40:13;;;;;;;8.48;4.97;;;;;;;2.02;64.10;103602.13;5035002;28;20029;-84
2021/03/06 04:42:41;;;;;;;12.65;5.10;;;;;;;1.99;64.48;103603.63;5035014;28;20120;-84
2021/03/06 04:45:09;;;;;;;11.48;4.57;;;;;;;1.99;64.46;103603.63;5034732;28;20093;-84
2021/03/06 04:47:38;;;;;;;15.43;4.93;;;;;;;1.96;64.18;103608.66;5034951;28;20045;-84
2021/03/06 04:50:05;;;;;;;14.75;5.55;;;;;;;1.90;64.40;103607.50;5034965;28;20079;-84
2021/03/06 04:52:31;;;;;;;9.95;4.85;;;;;;;1.88;64.44;103611.75;5034042;28;20104;-84
2021/03/06 04:54:58;;;;;;;10.10;4.80;;;;;;;1.87;63.79;103609.94;5034756;28;20041;-84
2021/03/06 04:57:25;;;;;;;11.07;5.38;;;;;;;1.90;63.42;103604.88;5034963;28;20033;-84
2021/03/06 04:59:51;;;;;;;10.93;5.18;;;;;;;1.89;63.33;103610.91;5035172;28;20037;-84
2021/03/06 05:02:17;;;;;;;7.03;4.70;;;;;;;1.86;63.91;103613.34;5034962;28;20030;-84
2021/03/06 05:04:43;;;;;;;6.95;4.22;;;;;;;1.87;63.54;103620.41;5035039;28;20029;-84
2021/03/06 05:07:10;;;;;;;7.97;4.15;;;;;;;1.83;63.73;103615.75;5034624;28;20108;-83
2021/03/06 05:09:36;;;;;;;7.07;3.80;;;;;;;1.81;63.76;103622.63;5034553;28;20041;-84
2021/03/06 05:12:02;;;;;;;6.93;3.83;;;;;;;1.81;63.42;103614.78;5034365;28;20033;-84
2021/03/06 05:14:28;;;;;;;6.10;3.72;;;;;;;1.79;63.70;103613.78;5034577;28;20036;-84
2021/03/06 05:16:55;;;;;;;4.70;3.40;;;;;;;1.77;63.71;103615.44;5034147;28;20124;-84
2021/03/06 05:19:21;;;;;;;8.93;3.00;;;;;;;1.75;63.88;103610.06;5034987;28;20366;-84
2021/03/06 05:21:48;;;;;;;5.95;3.35;;;;;;;1.77;63.42;103607.59;5034489;28;20034;-83
2021/03/06 05:24:15;;;;;;;8.77;4.43;;;;;;;1.76;63.60;103611.00;5033939;28;20033;-83
2021/03/06 05:26:41;;;;;;;4.93;3.92;;;;;;;1.57;64.14;103620.31;5034236;28;20042;-83
2021/03/06 05:29:07;;;;;;;3.05;2.55;;;;;;;1.48;64.01;103618.84;5033989;28;20045;-84
2021/03/06 05:31:33;;;;;;;4.55;4.00;;;;;;;1.42;64.72;103620.28;5034630;28;20168;-84
2021/03/06 05:33:59;;;;;;;6.47;3.97;;;;;;;1.42;64.66;103614.13;5034243;28;20022;-83
2021/03/06 05:36:25;;;;;;;4.18;2.95;;;;;;;1.42;64.74;103614.13;5034007;28;20428;-83
2021/03/06 05:38:52;;;;;;;2.67;2.20;;;;;;;1.40;64.60;103615.75;5034152;28;20033;-83
2021/03/06 05:41:20;;;;;;;4.82;3.05;;;;;;;1.41;65.09;103620.19;5034303;28;20036;-84
2021/03/06 05:43:46;;;;;;;2.85;2.55;;;;;;;1.40;65.20;103624.47;5034134;28;20033;-83
2021/03/06 05:46:14;;;;;;;5.40;3.45;;;;;;;1.36;65.16;103621.56;5034119;28;20076;-83
2021/03/06 05:48:40;;;;;;;10.00;4.07;;;;;;;1.35;65.46;103622.41;5034316;28;20069;-83
2021/03/06 05:51:07;;;;;;;5.85;3.95;;;;;;;1.30;65.64;103609.03;5033866;28;20076;-83
2021/03/06 05:53:35;;;;;;;9.43;4.03;;;;;;;1.31;65.60;103620.38;5033629;28;20029;-83
2021/03/06 05:56:03;;;;;;;11.48;4.93;;;;;;;1.34;65.25;103625.81;5033664;28;20511;-83
2021/03/06 05:58:30;;;;;;;8.25;4.60;;;;;;;1.35;65.46;103628.53;5033932;28;20033;-83
2021/03/06 06:00:58;;;;;;;7.20;4.90;;;;;;;1.38;65.49;103635.66;5033674;28;20021;-83
2021/03/06 06:03:25;;;;;;;48.05;7.80;;;;;;;1.36;64.74;103630.34;5033641;28;20029;-83
2021/03/06 06:05:53;;;;;;;12.15;6.57;;;;;;;1.35;65.21;103628.53;5033341;28;20033;-83
2021/03/06 06:08:19;;;;;;;8.82;6.00;;;;;;;1.31;64.90;103636.06;5033573;28;20038;-83
2021/03/06 06:10:46;;;;;;;8.00;5.85;;;;;;;1.31;64.70;103631.75;5033176;28;20021;-84
2021/03/06 06:13:13;;;;;;;5.82;4.78;;;;;;;1.34;64.91;103636.28;5033524;28;20168;-83
2021/03/06 06:15:39;;;;;;;6.43;5.32;;;;;;;1.35;64.79;103638.09;5033175;28;20364;-83
2021/03/06 06:18:06;;;;;;;7.78;6.05;;;;;;;1.32;64.82;103637.88;5033396;28;20026;-83
2021/03/06 06:20:36;;;;;;;6.40;5.07;;;;;;;1.31;65.06;103654.34;5033217;28;20070;-84
2021/03/06 06:23:12;;;;;;;8.07;6.28;;;;;;;1.36;64.51;103650.31;5033485;28;20032;-84
2021/03/06 06:25:38;;;;;;;6.72;5.15;;;;;;;1.31;64.74;103656.97;5033093;28;20029;-84
2021/03/06 06:28:06;;;;;;;7.32;5.95;;;;;;;1.33;65.29;103650.13;5033223;28;20489;-83
2021/03/06 06:30:33;;;;;;;6.47;5.32;;;;;;;1.33;64.87;103655.34;5033368;28;20038;-84
2021/03/06 06:32:59;;;;;;;7.93;5.80;;;;;;;1.32;65.06;103656.16;5033585;28;20029;-84
2021/03/06 06:35:25;;;;;;;8.88;6.57;;;;;;;1.34;64.94;103659.78;5033187;28;20033;-84
2021/03/06 06:38:08;;;;;;;7.03;5.60;;;;;;;1.44;65.02;103654.31;5033449;28;20029;-84
2021/03/06 06:40:39;;;;;;;9.18;6.35;;;;;;;1.42;64.74;103671.59;5033119;28;20037;-84
2021/03/06 06:43:23;;;;;;;10.57;7.45;;;;;;;1.48;65.20;103666.75;5033195;28;20057;-84
2021/03/06 06:45:49;;;;;;;29.77;10.05;;;;;;;1.46;64.77;103663.16;5033061;28;20091;-84
2021/03/06 06:48:16;;;;;;;49.10;11.30;;;;;;;1.52;65.24;103671.41;5032712;28;20472;-84
2021/03/06 06:50:42;;;;;;;10.75;7.15;;;;;;;1.58;65.46;103670.84;5033110;28;20116;-84
2021/03/06 06:53:26;;;;;;;57.05;12.02;;;;;;;1.71;65.98;103675.16;5033133;28;20097;-84
2021/03/06 06:55:52;;;;;;;111.93;15.23;;;;;;;1.69;66.04;103682.00;5032772;28;20389;-84
2021/03/06 06:58:18;;;;;;;182.50;22.13;;;;;;;1.77;66.00;103683.41;5033211;28;20141;-84
2021/03/06 07:00:44;;;;;;;154.63;19.73;;;;;;;1.79;66.60;103689.59;5032963;28;20567;-84
2021/03/06 07:03:21;;;;;;;85.95;13.73;;;;;;;1.95;67.05;103683.59;5033311;28;20034;-84
2021/03/06 07:05:47;;;;;;;104.20;17.27;;;;;;;1.97;67.18;103691.53;5032959;28;20101;-84
2021/03/06 07:08:23;;;;;;;95.10;16.73;;;;;;;2.10;67.14;103688.88;5032631;28;20033;-84
2021/03/06 07:10:51;;;;;;;65.90;13.50;;;;;;;2.13;67.02;103686.47;5032783;28;20022;-84
2021/03/06 07:13:18;;;;;;;120.13;17.98;;;;;;;2.23;67.13;103690.50;5033193;28;20527;-84
2021/03/06 07:15:53;;;;;;;42.75;12.60;;;;;;;2.37;67.25;103684.41;5036030;28;20392;-84
2021/03/06 07:18:20;;;;;;;42.30;11.23;;;;;;;2.40;67.60;103684.56;5036375;28;20048;-84
2021/03/06 07:20:48;;;;;;;43.80;9.98;;;;;;;2.47;67.33;103683.25;5036635;28;20030;-84
2021/03/06 07:25:59;;;;;;;81.35;11.98;;;;;;;2.58;67.70;103684.78;5042793;28;20420;-84
2021/03/06 07:28:26;;;;;;;52.88;10.63;;;;;;;2.63;67.28;103686.75;5013232;28;20448;-84
2021/03/06 07:30:54;;;;;;;41.90;10.38;;;;;;;2.68;67.52;103693.16;5030974;28;20038;-84
2021/03/06 07:33:21;;;;;;;56.67;12.18;;;;;;;2.73;67.29;103692.63;5030918;28;20034;-85
2021/03/06 07:35:51;;;;;;;57.20;9.98;;;;;;;2.77;67.09;103696.31;5030639;28;20022;-86
2021/03/06 07:38:19;;;;;;;69.88;13.00;;;;;;;2.80;67.07;103688.63;5030936;28;20076;-83
2021/03/06 07:40:50;;;;;;;44.03;12.10;;;;;;;2.87;67.02;103696.03;5030591;28;20030;-83
2021/03/06 07:43:21;;;;;;;52.67;10.15;;;;;;;2.93;67.06;103690.28;5031041;28;20030;-83
2021/03/06 07:45:51;;;;;;;19.63;7.33;;;;;;;2.96;66.92;103689.53;5030282;28;20057;-83
2021/03/06 07:48:19;;;;;;;21.90;8.25;;;;;;;2.99;66.98;103688.00;5030268;28;20034;-85
2021/03/06 07:50:48;;;;;;;37.72;7.93;;;;;;;3.10;66.74;103685.97;5030230;28;20030;-83
2021/03/06 07:53:19;;;;;;;8.20;6.20;;;;;;;3.18;66.74;103681.19;5030500;28;20117;-83
2021/03/06 07:55:50;;;;;;;24.10;8.00;;;;;;;3.23;66.58;103679.72;5030235;28;20120;-83
2021/03/06 07:58:19;;;;;;;7.95;7.07;;;;;;;3.31;66.46;103685.38;5030307;28;20022;-83
2021/03/06 08:06:14;;;;;;;8.02;6.20;;;;;;;3.45;66.57;103691.41;5111303;27;20358;-85
2021/03/06 08:11:24;;;;;;;5.28;4.78;;;;;;;3.53;66.50;103693.63;5090858;27;20393;-84
2021/03/06 08:13:59;;;;;;;7.07;6.38;;;;;;;3.61;66.25;103698.38;5070900;28;20164;-84
2021/03/06 08:19:24;;;;;;;6.60;5.93;;;;;;;3.72;65.98;103692.91;5092866;27;20409;-86
2021/03/06 08:21:52;;;;;;;7.00;6.07;;;;;;;3.70;66.26;103691.94;5071237;28;20051;-88
2021/03/06 08:29:44;;;;;;;7.97;6.32;;;;;;;3.92;66.00;103695.69;5050542;28;20407;-84
2021/03/06 08:32:32;;;;;;;8.68;6.60;;;;;;;4.09;65.80;103688.72;5031140;28;20034;-86
2021/03/06 08:35:15;;;;;;;10.75;5.97;;;;;;;4.08;65.85;103691.28;5030854;28;20033;-85
2021/03/06 08:37:41;;;;;;;6.35;4.97;;;;;;;4.15;65.82;103689.06;5011022;28;20030;-86
2021/03/06 08:40:11;;;;;;;9.20;5.38;;;;;;;4.26;65.81;103692.25;5010949;28;20113;-87
2021/03/06 08:45:28;;;;;;;9.68;5.43;;;;;;;4.48;66.23;103699.50;5089161;27;20392;-86
2021/03/06 08:48:01;;;;;;;8.50;5.32;;;;;;;4.56;66.36;103691.09;5070788;28;20033;-85
2021/03/06 08:50:29;;;;;;;10.93;6.22;;;;;;;4.61;66.18;103697.50;5070663;28;20059;-87
2021/03/06 08:53:05;;;;;;;11.05;6.22;;;;;;;4.77;65.70;103701.78;5070548;28;20060;-87
2021/03/06 08:55:33;;;;;;;13.15;5.35;;;;;;;4.82;65.91;103695.97;5070681;28;20035;-86
2021/03/06 08:58:01;;;;;;;13.10;5.68;;;;;;;4.92;66.00;103693.78;5070662;28;20028;-85
2021/03/06 09:00:30;;;;;;;9.32;5.53;;;;;;;5.05;66.29;103696.19;5070348;28;20029;-85
2021/03/06 09:03:07;;;;;;;12.75;5.05;;;;;;;5.10;66.44;103702.56;5069636;28;20025;-86
2021/03/06 09:05:33;;;;;;;10.02;4.35;;;;;;;5.24;66.20;103700.59;5085148;28;20067;-86
2021/03/06 09:07:59;;;;;;;15.68;5.78;;;;;;;5.38;66.24;103703.88;5070224;28;20025;-86
2021/03/06 09:10:43;;;;;;;11.57;5.93;;;;;;;5.51;65.99;103700.13;5070260;28;20129;-86
2021/03/06 09:13:16;;;;;;;16.98;5.63;;;;;;;5.64;65.68;103693.69;5070120;28;20036;-86
2021/03/06 09:15:49;;;;;;;10.70;4.78;;;;;;;5.73;65.68;103696.78;5070081;28;20387;-86
2021/03/06 09:21:02;;;;;;;13.13;4.93;;;;;;;6.00;65.49;103704.16;5086176;28;20405;-86
2021/03/06 09:26:13;;;;;;;9.23;4.63;;;;;;;6.21;65.23;103700.69;5081506;27;20361;-85
2021/03/06 09:28:40;;;;;;;7.35;3.22;;;;;;;6.34;65.15;103697.72;5070640;28;20120;-85
2021/03/06 09:31:30;;;;;;;9.57;3.20;;;;;;;6.51;64.67;103698.47;5070695;28;20025;-86
2021/03/06 09:33:58;;;;;;;9.15;3.20;;;;;;;6.60;64.62;103696.25;5070163;28;20499;-86
2021/03/06 09:36:30;;;;;;;5.40;2.47;;;;;;;6.79;64.36;103692.63;5070219;28;20029;-86
2021/03/06 09:38:58;;;;;;;10.52;3.05;;;;;;;6.86;64.33;103698.16;5070789;28;20029;-86
2021/03/06 09:41:33;;;;;;;7.70;2.22;;;;;;;6.92;63.55;103693.16;5070471;28;20028;-86
2021/03/06 09:44:01;;;;;;;8.75;3.13;;;;;;;7.00;63.53;103694.34;5070325;28;20028;-86
2021/03/06 09:46:31;;;;;;;7.88;2.50;;;;;;;7.18;63.21;103688.94;5070234;28;20025;-87
2021/03/06 09:49:00;;;;;;;12.10;2.80;;;;;;;7.30;63.28;103691.13;5070203;28;20052;-88
2021/03/06 09:51:50;;;;;;;7.57;2.38;;;;;;;7.50;62.68;103693.66;5070470;28;20021;-87
2021/03/06 09:54:18;;;;;;;6.38;2.47;;;;;;;7.58;62.02;103686.94;5070291;28;20029;-86
2021/03/06 09:56:54;;;;;;;7.60;2.80;;;;;;;7.75;60.49;103679.66;5070191;28;20036;-86
2021/03/06 09:59:23;;;;;;;8.75;2.22;;;;;;;7.78;60.83;103678.03;5069838;28;20021;-86
2021/03/06 10:01:49;;;;;;;10.63;2.03;;;;;;;7.87;60.52;103674.84;5070200;28;20036;-86
2021/03/06 10:04:21;;;;;;;7.38;2.58;;;;;;;8.01;59.79;103662.16;5070213;28;20029;-86
2021/03/06 10:06:50;;;;;;;7.22;1.73;;;;;;;8.13;59.58;103668.72;5069949;28;20108;-87
2021/03/06 10:09:18;;;;;;;8.82;1.55;;;;;;;8.25;58.65;103674.44;5069958;28;20039;-86
2021/03/06 10:11:48;;;;;;;7.13;1.52;;;;;;;8.50;58.28;103662.09;5069652;28;20549;-86
2021/03/06 10:14:20;;;;;;;12.05;1.63;;;;;;;8.68;58.03;103654.78;5070094;28;20032;-86
2021/03/06 10:16:50;;;;;;;5.55;1.77;;;;;;;9.10;57.05;103653.47;5069965;28;20491;-87
2021/03/06 10:19:18;;;;;;;7.45;1.67;;;;;;;9.39;55.84;103654.38;5069801;28;20024;-87
2021/03/06 10:22:06;;;;;;;8.73;1.88;;;;;;;9.38;55.52;103655.25;5069788;28;20485;-88
2021/03/06 10:24:50;;;;;;;6.38;1.73;;;;;;;9.32;55.26;103656.78;5069402;28;20052;-87
2021/03/06 10:27:16;;;;;;;7.15;2.00;;;;;;;9.22;54.54;103658.25;5069435;28;20071;-87
2021/03/06 10:29:43;;;;;;;6.95;2.05;;;;;;;9.15;54.40;103666.88;5069528;28;20036;-87
2021/03/06 10:32:09;;;;;;;6.70;1.77;;;;;;;9.10;54.49;103658.78;5069341;28;20112;-87
2021/03/06 10:34:36;;;;;;;12.13;2.00;;;;;;;9.09;54.31;103658.72;5069005;28;20108;-87
2021/03/06 10:40:04;;;;;;;5.70;1.75;;;;;;;9.11;52.40;103650.00;5091117;27;20410;-87
2021/03/06 10:42:51;;;;;;;9.55;1.90;;;;;;;9.10;50.95;103655.22;5070947;28;20039;-87
2021/03/06 10:45:33;;;;;;;8.25;1.70;;;;;;;9.10;50.90;103652.56;5069037;28;20025;-86
2021/03/06 10:48:02;;;;;;;17.60;7.30;;;;;;;9.01;51.96;103647.88;5051213;28;20061;-86
2021/03/06 10:53:12;;;;;;;10.20;3.08;;;;;;;9.17;52.18;103641.34;5091084;27;20410;-87
2021/03/06 10:55:39;;;;;;;7.17;2.13;;;;;;;9.22;52.67;103643.28;5066207;28;20040;-86
2021/03/06 10:58:05;;;;;;;5.32;1.83;;;;;;;9.30;51.74;103637.34;5050684;28;20183;-87
2021/03/06 11:00:31;;;;;;;4.55;1.27;;;;;;;9.64;50.72;103633.91;5050650;28;20029;-87
2021/03/06 11:02:59;;;;;;;7.88;1.80;;;;;;;9.80;50.39;103640.53;5050724;28;20038;-87
2021/03/06 11:05:26;;;;;;;6.68;1.42;;;;;;;9.98;50.63;103637.53;5050425;28;20388;-87
2021/03/06 11:07:54;;;;;;;5.38;1.00;;;;;;;10.21;49.13;103639.91;5050478;28;20503;-87
2021/03/06 11:10:21;;;;;;;5.60;1.00;;;;;;;10.44;47.51;103639.63;5050054;28;20396;-87
2021/03/06 11:12:57;;;;;;;4.85;1.08;;;;;;;10.48;45.98;103636.19;5050281;28;20133;-87
2021/03/06 11:15:26;;;;;;;2.97;0.80;;;;;;;10.47;46.11;103632.66;5050480;28;20036;-87
2021/03/06 11:17:56;;;;;;;5.07;0.90;;;;;;;10.36;45.35;103635.00;5050456;28;20025;-88
2021/03/06 11:20:26;;;;;;;2.33;0.90;;;;;;;10.16;45.56;103639.75;5049885;28;20061;-87
2021/03/06 11:22:53;;;;;;;5.10;2.17;;;;;;;10.07;45.46;103633.31;5050984;28;20033;-87
2021/03/06 11:25:21;;;;;;;3.63;1.13;;;;;;;9.98;46.00;103639.25;5050208;28;20060;-87
2021/03/06 11:33:09;;;;;;;2.15;0.77;;;;;;;10.17;43.84;103615.06;5091088;27;20885;-86
2021/03/06 11:35:36;;;;;;;3.20;0.90;;;;;;;10.31;42.46;103618.06;5066469;28;20112;-87
2021/03/06 11:38:03;;;;;;;4.50;1.17;;;;;;;10.53;42.36;103610.72;5050913;28;20021;-87
2021/03/06 11:40:32;;;;;;;2.70;0.80;;;;;;;10.65;41.70;103600.41;5050575;28;20055;-87
2021/03/06 11:42:59;;;;;;;2.05;0.60;;;;;;;10.73;41.15;103595.28;5050687;28;20388;-87
2021/03/06 11:45:25;;;;;;;3.22;0.80;;;;;;;10.90;40.27;103586.81;5050798;28;20025;-87
2021/03/06 11:47:53;;;;;;;4.13;0.88;;;;;;;11.13;39.91;103588.22;5050653;28;20029;-86
2021/03/06 11:50:23;;;;;;;2.45;0.90;;;;;;;11.34;39.22;103581.59;5050472;28;20038;-87
2021/03/06 11:52:50;;;;;;;4.93;1.27;;;;;;;11.63;39.43;103576.84;5050371;28;20443;-87
2021/03/06 11:55:16;;;;;;;3.75;0.93;;;;;;;11.90;39.17;103570.28;5050333;28;20100;-88
2021/03/06 11:57:43;;;;;;;4.32;0.95;;;;;;;12.20;38.08;103569.06;5050936;28;20424;-88
2021/03/06 12:00:14;;;;;;;2.45;1.08;;;;;;;12.17;38.79;103569.00;5050071;28;20048;-87
2021/03/06 12:02:40;;;;;;;3.05;1.17;;;;;;;12.27;38.39;103560.31;5050160;28;20033;-88
2021/03/06 12:05:07;;;;;;;5.53;0.93;;;;;;;12.28;38.36;103561.22;5049896;28;20533;-87
2021/03/06 12:07:34;;;;;;;3.80;0.80;;;;;;;12.20;37.93;103558.44;5050326;28;20539;-87
2021/03/06 12:10:01;;;;;;;4.70;0.98;;;;;;;12.09;37.68;103560.88;5050045;28;20026;-88
2021/03/06 12:12:27;;;;;;;4.05;0.80;;;;;;;12.15;37.74;103560.13;5053304;28;20427;-87
2021/03/06 12:14:53;;;;;;;1.73;0.82;;;;;;;12.01;37.87;103551.00;5053589;28;20075;-87
2021/03/06 12:17:20;;;;;;;8.23;1.27;;;;;;;11.86;37.99;103559.56;5051151;28;20026;-87
2021/03/06 12:19:46;;;;;;;3.05;1.63;;;;;;;11.63;37.70;103560.03;5049900;28;20037;-88
2021/03/06 12:22:12;;;;;;;2.95;0.88;;;;;;;11.54;37.88;103560.75;5049764;28;20033;-87